Map

Track Data

SID SEASON NUMBER BASIN SUBBASIN NAME ISO_TIME NATURE LAT LON WMO_WIND WMO_PRES WMO_AGENCY TRACK_TYPE DIST2LAND LANDFALL IFLAG USA_AGENCY USA_ATCF_ID USA_LAT USA_LON USA_RECORD USA_STATUS USA_WIND USA_PRES USA_SSHS USA_R34_NE USA_R34_SE USA_R34_SW USA_R34_NW USA_R50_NE USA_R50_SE USA_R50_SW USA_R50_NW USA_R64_NE USA_R64_SE USA_R64_SW USA_R64_NW USA_POCI USA_ROCI USA_RMW USA_EYE TOKYO_LAT TOKYO_LON TOKYO_GRADE TOKYO_WIND TOKYO_PRES TOKYO_R50_DIR TOKYO_R50_LONG TOKYO_R50_SHORT TOKYO_R30_DIR TOKYO_R30_LONG TOKYO_R30_SHORT TOKYO_LAND CMA_LAT CMA_LON CMA_CAT CMA_WIND CMA_PRES HKO_LAT HKO_LON HKO_CAT HKO_WIND HKO_PRES NEWDELHI_LAT NEWDELHI_LON NEWDELHI_GRADE NEWDELHI_WIND NEWDELHI_PRES NEWDELHI_CI NEWDELHI_DP NEWDELHI_POCI REUNION_LAT REUNION_LON REUNION_TYPE REUNION_WIND REUNION_PRES REUNION_TNUM REUNION_CI REUNION_RMW REUNION_R34_NE REUNION_R34_SE REUNION_R34_SW REUNION_R34_NW REUNION_R50_NE REUNION_R50_SE REUNION_R50_SW REUNION_R50_NW REUNION_R64_NE REUNION_R64_SE REUNION_R64_SW REUNION_R64_NW BOM_LAT BOM_LON BOM_TYPE BOM_WIND BOM_PRES BOM_TNUM BOM_CI BOM_RMW BOM_R34_NE BOM_R34_SE BOM_R34_SW BOM_R34_NW BOM_R50_NE BOM_R50_SE BOM_R50_SW BOM_R50_NW BOM_R64_NE BOM_R64_SE BOM_R64_SW BOM_R64_NW BOM_ROCI BOM_POCI BOM_EYE BOM_POS_METHOD BOM_PRES_METHOD NADI_LAT NADI_LON NADI_CAT NADI_WIND NADI_PRES WELLINGTON_LAT WELLINGTON_LON WELLINGTON_WIND WELLINGTON_PRES DS824_LAT DS824_LON DS824_STAGE DS824_WIND DS824_PRES TD9636_LAT TD9636_LON TD9636_STAGE TD9636_WIND TD9636_PRES TD9635_LAT TD9635_LON TD9635_WIND TD9635_PRES TD9635_ROCI NEUMANN_LAT NEUMANN_LON NEUMANN_CLASS NEUMANN_WIND NEUMANN_PRES MLC_LAT MLC_LON MLC_CLASS MLC_WIND MLC_PRES USA_GUST BOM_GUST BOM_GUST_PER REUNION_GUST REUNION_GUST_PER USA_SEAHGT USA_SEARAD_NE USA_SEARAD_SE USA_SEARAD_SW USA_SEARAD_NW STORM_SPEED STORM_DIR
1906068S15057 1906 11 SI MM NOT_NAMED 1906-03-09 00:00:00 TS -15.1000 57.0000 main 561 534 _________O____ -1 -15.1000 57.0000 TC 12 234
1906068S15057 1906 11 SI MM NOT_NAMED 1906-03-09 03:00:00 TS -15.4502 56.5028 main 525 503 _________P____ -1 -15.4502 56.5028 TC 12 234
1906068S15057 1906 11 SI MM NOT_NAMED 1906-03-09 06:00:00 TS -15.8000 56.0000 main 506 490 _________O____ -1 -15.8000 56.0000 TC 12 234
1906068S15057 1906 11 SI MM NOT_NAMED 1906-03-09 09:00:00 TS -16.1499 55.4924 main 494 475 _________P____ -1 -16.1499 55.4924 TC 12 234
1906068S15057 1906 11 SI MM NOT_NAMED 1906-03-09 12:00:00 TS -16.5000 55.0000 main 481 465 _________O____ -1 -16.5000 55.0000 TC 12 232
1906068S15057 1906 11 SI MM NOT_NAMED 1906-03-09 15:00:00 TS -16.8498 54.5423 main 455 433 _________P____ -1 -16.8498 54.5423 TC 11 231
1906068S15057 1906 11 SI MM NOT_NAMED 1906-03-09 18:00:00 TS -17.2000 54.1000 main 433 408 _________O____ -1 -17.2000 54.1000 TC 11 231
1906068S15057 1906 11 SI MM NOT_NAMED 1906-03-09 21:00:00 TS -17.5575 53.6350 main 403 381 _________P____ -1 -17.5575 53.6350 TC 11 231
1906068S15057 1906 11 SI MM NOT_NAMED 1906-03-10 00:00:00 TS -17.9000 53.2000 main 381 359 _________O____ -1 -17.9000 53.2000 TC 10 230
1906068S15057 1906 11 SI MM NOT_NAMED 1906-03-10 03:00:00 TS -18.1998 52.8347 main 353 328 _________P____ -1 -18.1998 52.8347 TC 9 228
1906068S15057 1906 11 SI MM NOT_NAMED 1906-03-10 06:00:00 TS -18.5000 52.5000 main 328 300 _________O____ -1 -18.5000 52.5000 TC 9 226
1906068S15057 1906 11 SI MM NOT_NAMED 1906-03-10 09:00:00 TS -18.8350 52.1350 main 292 276 _________P____ -1 -18.8350 52.1350 TC 10 223
1906068S15057 1906 11 SI MM NOT_NAMED 1906-03-10 12:00:00 TS -19.2000 51.8000 main 276 257 _________O____ -1 -19.2000 51.8000 TC 10 219
1906068S15057 1906 11 SI MM NOT_NAMED 1906-03-10 15:00:00 TS -19.5775 51.5050 main 260 251 _________P____ -1 -19.5775 51.5050 TC 9 211
1906068S15057 1906 11 SI MM NOT_NAMED 1906-03-10 18:00:00 TS -20.0000 51.3000 main 256 251 _________O____ -1 -20.0000 51.3000 TC 10 198
1906068S15057 1906 11 SI MM NOT_NAMED 1906-03-10 21:00:00 TS -20.4999 51.1900 main 256 256 _________P____ -1 -20.4999 51.1900 TC 10 186
1906068S15057 1906 11 SI MM NOT_NAMED 1906-03-11 00:00:00 TS -21.0000 51.2000 main 273 273 _________O____ -1 -21.0000 51.2000 TC 9 173
1906068S15057 1906 11 SI MM NOT_NAMED 1906-03-11 03:00:00 TS -21.4225 51.3049 main 301 301 _________P____ -1 -21.4225 51.3049 TC 9 161
1906068S15057 1906 11 SI MM NOT_NAMED 1906-03-11 06:00:00 TS -21.8000 51.5000 main 333 333 _________O____ -1 -21.8000 51.5000 TC 8 151
1906068S15057 1906 11 SI MM NOT_NAMED 1906-03-11 09:00:00 TS -22.1575 51.7350 main 362 360 _________P____ -1 -22.1575 51.7350 TC 8 147
1906068S15057 1906 11 SI MM NOT_NAMED 1906-03-11 12:00:00 TS -22.5000 52.0000 main 365 355 _________O____ -1 -22.5000 52.0000 TC 8 146
1906068S15057 1906 11 SI MM NOT_NAMED 1906-03-11 15:00:00 TS -22.8574 52.2426 main 365 351 _________P____ -1 -22.8574 52.2426 TC 8 147
1906068S15057 1906 11 SI MM NOT_NAMED 1906-03-11 18:00:00 TS -23.2000 52.5000 main 357 355 _________O____ -1 -23.2000 52.5000 TC 8 142
1906068S15057 1906 11 SI MM NOT_NAMED 1906-03-11 21:00:00 TS -23.4924 52.7779 main 355 355 _________P____ -1 -23.4924 52.7779 TC 8 138
1906068S15057 1906 11 SI MM NOT_NAMED 1906-03-12 00:00:00 TS -23.8000 53.1000 main 359 359 _________O____ -1 -23.8000 53.1000 TC 10 137
1906068S15057 1906 11 SI MM NOT_NAMED 1906-03-12 03:00:00 TS -24.1925 53.4849 main 372 372 _________P____ -1 -24.1925 53.4849 TC 11 138
1906068S15057 1906 11 SI MM NOT_NAMED 1906-03-12 06:00:00 TS -24.6000 53.9000 main 395 395 _________O____ -1 -24.6000 53.9000 TC 11 136
1906068S15057 1906 11 SI MM NOT_NAMED 1906-03-12 09:00:00 TS -24.9650 54.3151 main 423 420 _________P____ -1 -24.9650 54.3151 TC 10 134
1906068S15057 1906 11 SI MM NOT_NAMED 1906-03-12 12:00:00 TS -25.3000 54.7000 main 445 445 _________O____ -1 -25.3000 54.7000 TC 9 136
1906068S15057 1906 11 SI MM NOT_NAMED 1906-03-12 15:00:00 TS -25.6148 55.0078 main 473 473 _________P____ -1 -25.6148 55.0078 TC 8 138
1906068S15057 1906 11 SI MM NOT_NAMED 1906-03-12 18:00:00 TS -25.9000 55.3000 main 503 503 _________O____ -1 -25.9000 55.3000 TC 8 134
1906068S15057 1906 11 SI MM NOT_NAMED 1906-03-12 21:00:00 TS -26.1578 55.6346 main 536 536 _________P____ -1 -26.1578 55.6346 TC 8 129
1906068S15057 1906 11 SI MM NOT_NAMED 1906-03-13 00:00:00 TS -26.4000 56.0000 main 560 _________O____ -1 -26.4000 56.0000 TC 8 127

About IBTrACS Database

This database is a web-friendly format of International Best Track Archive for Climate Stewardship (IBTrACS), a global best track data archive curated by NOAA dating back to 1842.

Updated: 2021-12-06